Time;durP1;ratioP1;P1;durP2;ratioP2;P2;SDS_P1;SDS_P2;PMS_P1;PMS_P2;Temp;Humidity;BMP_temperature;BMP_pressure;BME280_temperature;BME280_humidity;BME280_pressure;Samples;Min_cycle;Max_cycle;Signal;HPM_P1;HPM_P2
2022/06/05 00:00:21;;;;;;;9.950001;9;;;;;;;17.61;87.68555;95432.92;;;;
2022/06/05 00:01:22;;;;;;;10.5;9.5;;;;;;;17.48;87.9668;95426.62;;;;
2022/06/05 00:02:30;;;;;;;10.5;9.5;;;;;;;17.48;87.9668;95426.62;;;;
2022/06/05 00:03:40;;;;;;;10.5;9.5;;;;;;;17.48;87.9668;95426.62;;;;
2022/06/05 00:04:51;;;;;;;10.5;9.5;;;;;;;17.48;87.9668;95426.62;;;;
2022/06/05 00:05:59;;;;;;;10.5;9.5;;;;;;;17.48;87.9668;95426.62;;;;
2022/06/05 00:07:07;;;;;;;10.5;9.5;;;;;;;17.48;87.9668;95426.62;;;;
2022/06/05 00:08:13;;;;;;;10.5;9.5;;;;;;;17.48;87.9668;95426.62;;;;
2022/06/05 00:09:25;;;;;;;10.5;9.5;;;;;;;17.48;87.9668;95426.62;;;;
2022/06/05 00:10:34;;;;;;;10.5;9.5;;;;;;;17.48;87.9668;95426.62;;;;
2022/06/05 00:11:39;;;;;;;10.9;10;;;;;;;17.45;88.2002;95403.49;;;;
2022/06/05 00:12:46;;;;;;;10.9;10;;;;;;;17.45;88.2002;95403.49;;;;
2022/06/05 00:13:55;;;;;;;10.9;10;;;;;;;17.45;88.2002;95403.49;;;;
2022/06/05 00:14:55;;;;;;;10.9;10;;;;;;;17.45;88.2002;95403.49;;;;
2022/06/05 00:15:56;;;;;;;10.9;10;;;;;;;17.45;88.2002;95403.49;;;;
2022/06/05 00:16:57;;;;;;;10.9;10;;;;;;;17.45;88.2002;95403.49;;;;
2022/06/05 00:17:58;;;;;;;10.9;10;;;;;;;17.45;88.2002;95403.49;;;;
2022/06/05 00:18:59;;;;;;;10.9;10;;;;;;;17.45;88.2002;95403.49;;;;
2022/06/05 00:20:00;;;;;;;10.9;10;;;;;;;17.45;88.2002;95403.49;;;;
2022/06/05 00:21:00;;;;;;;10.9;10;;;;;;;17.45;88.2002;95403.49;;;;
2022/06/05 00:22:01;;;;;;;10.9;10;;;;;;;17.45;88.2002;95403.49;;;;
2022/06/05 00:23:02;;;;;;;10.9;10;;;;;;;17.45;88.2002;95403.49;;;;
2022/06/05 00:24:02;;;;;;;10.9;10;;;;;;;17.45;88.2002;95403.49;;;;
2022/06/05 00:25:03;;;;;;;10.9;10;;;;;;;17.45;88.2002;95403.49;;;;
2022/06/05 00:26:05;;;;;;;10.9;10;;;;;;;17.45;88.2002;95403.49;;;;
2022/06/05 00:27:15;;;;;;;10.9;10;;;;;;;17.45;88.2002;95403.49;;;;
2022/06/05 00:28:23;;;;;;;10.9;10;;;;;;;17.45;88.2002;95403.49;;;;
2022/06/05 00:29:36;;;;;;;10.9;10;;;;;;;17.45;88.2002;95403.49;;;;
2022/06/05 00:30:48;;;;;;;10.9;10;;;;;;;17.45;88.2002;95403.49;;;;
2022/06/05 00:31:56;;;;;;;10.9;10;;;;;;;17.45;88.2002;95403.49;;;;
2022/06/05 00:33:08;;;;;;;11.2;10.2;;;;;;;17.27;88.64355;95384.15;;;;
2022/06/05 00:34:15;;;;;;;11.2;10.2;;;;;;;17.27;88.64355;95384.15;;;;
2022/06/05 00:35:16;;;;;;;11.2;10.2;;;;;;;17.27;88.64355;95384.15;;;;
2022/06/05 00:36:18;;;;;;;11.2;10.2;;;;;;;17.27;88.64355;95384.15;;;;
2022/06/05 00:37:33;;;;;;;11.2;10.2;;;;;;;17.27;88.64355;95384.15;;;;
2022/06/05 00:38:42;;;;;;;11.2;10.2;;;;;;;17.27;88.64355;95384.15;;;;
2022/06/05 00:39:50;;;;;;;11.2;10.2;;;;;;;17.27;88.64355;95384.15;;;;
2022/06/05 00:41:00;;;;;;;11.2;10.2;;;;;;;17.27;88.64355;95384.15;;;;
2022/06/05 00:42:22;;;;;;;11.2;10.2;;;;;;;17.27;88.64355;95384.15;;;;
2022/06/05 00:43:26;;;;;;;12.1;10.95;;;;;;;17.16;88.87109;95395.78;;;;
2022/06/05 00:44:27;;;;;;;12.1;10.95;;;;;;;17.16;88.87109;95395.78;;;;
2022/06/05 00:45:32;;;;;;;12.1;10.95;;;;;;;17.16;88.87109;95395.78;;;;
2022/06/05 00:46:33;;;;;;;12.1;10.95;;;;;;;17.16;88.87109;95395.78;;;;
2022/06/05 00:47:37;;;;;;;12.1;10.95;;;;;;;17.16;88.87109;95395.78;;;;
2022/06/05 00:48:39;;;;;;;12.1;10.95;;;;;;;17.16;88.87109;95395.78;;;;
2022/06/05 00:49:40;;;;;;;12.1;10.95;;;;;;;17.16;88.87109;95395.78;;;;
2022/06/05 00:50:47;;;;;;;12.1;10.95;;;;;;;17.16;88.87109;95395.78;;;;
2022/06/05 00:51:48;;;;;;;12.1;10.95;;;;;;;17.16;88.87109;95395.78;;;;
2022/06/05 00:52:48;;;;;;;12.1;10.95;;;;;;;17.16;88.87109;95395.78;;;;
2022/06/05 00:53:52;;;;;;;12.1;10.95;;;;;;;17.16;88.87109;95395.78;;;;
2022/06/05 00:54:52;;;;;;;11.25;10.05;;;;;;;17.11;89.09082;95397.88;;;;
2022/06/05 00:55:53;;;;;;;11.25;10.05;;;;;;;17.11;89.09082;95397.88;;;;
2022/06/05 00:56:53;;;;;;;11.25;10.05;;;;;;;17.11;89.09082;95397.88;;;;
2022/06/05 00:57:54;;;;;;;11.25;10.05;;;;;;;17.11;89.09082;95397.88;;;;
2022/06/05 00:58:57;;;;;;;11.25;10.05;;;;;;;17.11;89.09082;95397.88;;;;
2022/06/05 00:59:58;;;;;;;11.25;10.05;;;;;;;17.11;89.09082;95397.88;;;;
2022/06/05 01:01:00;;;;;;;11.25;10.05;;;;;;;17.11;89.09082;95397.88;;;;
2022/06/05 01:02:02;;;;;;;11.25;10.05;;;;;;;17.11;89.09082;95397.88;;;;
2022/06/05 01:03:02;;;;;;;11.25;10.05;;;;;;;17.11;89.09082;95397.88;;;;
2022/06/05 01:04:06;;;;;;;11.25;10.05;;;;;;;17.11;89.09082;95397.88;;;;
2022/06/05 01:05:07;;;;;;;11.25;10.05;;;;;;;17.11;89.09082;95397.88;;;;
2022/06/05 01:06:13;;;;;;;11.25;10.05;;;;;;;17.11;89.09082;95397.88;;;;
2022/06/05 01:07:13;;;;;;;11.25;10.05;;;;;;;17.11;89.09082;95397.88;;;;
2022/06/05 01:08:15;;;;;;;11.25;10.05;;;;;;;17.11;89.09082;95397.88;;;;
2022/06/05 01:09:16;;;;;;;11.25;10.05;;;;;;;17.11;89.09082;95397.88;;;;
2022/06/05 01:10:17;;;;;;;11.25;10.05;;;;;;;17.11;89.09082;95397.88;;;;
2022/06/05 01:11:20;;;;;;;11.25;10.05;;;;;;;17.11;89.09082;95397.88;;;;
2022/06/05 01:12:27;;;;;;;11.25;10.05;;;;;;;17.11;89.09082;95397.88;;;;
2022/06/05 01:13:40;;;;;;;11.25;10.05;;;;;;;17.11;89.09082;95397.88;;;;
2022/06/05 01:14:53;;;;;;;11.25;10.05;;;;;;;17.11;89.09082;95397.88;;;;
2022/06/05 01:16:02;;;;;;;11.55;10.5;;;;;;;17.06;89.41602;95376.54;;;;
2022/06/05 01:17:17;;;;;;;11.55;10.5;;;;;;;17.06;89.41602;95376.54;;;;
2022/06/05 01:18:30;;;;;;;11.55;10.5;;;;;;;17.06;89.41602;95376.54;;;;
2022/06/05 01:19:41;;;;;;;11.55;10.5;;;;;;;17.06;89.41602;95376.54;;;;
2022/06/05 01:20:50;;;;;;;11.55;10.5;;;;;;;17.06;89.41602;95376.54;;;;
2022/06/05 01:22:09;;;;;;;11.55;10.5;;;;;;;17.06;89.41602;95376.54;;;;
2022/06/05 01:23:30;;;;;;;11.55;10.5;;;;;;;17.06;89.41602;95376.54;;;;
2022/06/05 01:24:44;;;;;;;11.55;10.5;;;;;;;17.06;89.41602;95376.54;;;;
2022/06/05 01:26:02;;;;;;;10.4;9.500002;;;;;;;16.97;89.4209;95371.23;;;;
2022/06/05 01:27:15;;;;;;;10.4;9.500002;;;;;;;16.97;89.4209;95371.23;;;;
2022/06/05 01:28:20;;;;;;;10.4;9.500002;;;;;;;16.97;89.4209;95371.23;;;;
2022/06/05 01:29:25;;;;;;;10.4;9.500002;;;;;;;16.97;89.4209;95371.23;;;;
2022/06/05 01:30:35;;;;;;;10.4;9.500002;;;;;;;16.97;89.4209;95371.23;;;;
2022/06/05 01:31:45;;;;;;;10.4;9.500002;;;;;;;16.97;89.4209;95371.23;;;;
2022/06/05 01:32:51;;;;;;;10.4;9.500002;;;;;;;16.97;89.4209;95371.23;;;;
2022/06/05 01:33:55;;;;;;;10.4;9.500002;;;;;;;16.97;89.4209;95371.23;;;;
2022/06/05 01:35:04;;;;;;;10.4;9.500002;;;;;;;16.97;89.4209;95371.23;;;;
2022/06/05 01:36:13;;;;;;;10.4;9.500002;;;;;;;16.97;89.4209;95371.23;;;;
2022/06/05 01:37:19;;;;;;;10.45;9.550001;;;;;;;16.93;89.56543;95350.11;;;;
2022/06/05 01:38:29;;;;;;;10.45;9.550001;;;;;;;16.93;89.56543;95350.11;;;;
2022/06/05 01:39:40;;;;;;;10.45;9.550001;;;;;;;16.93;89.56543;95350.11;;;;
2022/06/05 01:40:47;;;;;;;10.45;9.550001;;;;;;;16.93;89.56543;95350.11;;;;
2022/06/05 01:41:52;;;;;;;10.45;9.550001;;;;;;;16.93;89.56543;95350.11;;;;
2022/06/05 01:42:58;;;;;;;10.45;9.550001;;;;;;;16.93;89.56543;95350.11;;;;
2022/06/05 01:44:05;;;;;;;10.45;9.550001;;;;;;;16.93;89.56543;95350.11;;;;
2022/06/05 01:45:11;;;;;;;10.45;9.550001;;;;;;;16.93;89.56543;95350.11;;;;
2022/06/05 01:46:17;;;;;;;10.45;9.550001;;;;;;;16.93;89.56543;95350.11;;;;
2022/06/05 01:47:24;;;;;;;10.25;9.299999;;;;;;;16.81;89.67188;95341.41;;;;
2022/06/05 01:48:29;;;;;;;10.25;9.299999;;;;;;;16.81;89.67188;95341.41;;;;
2022/06/05 01:49:36;;;;;;;10.25;9.299999;;;;;;;16.81;89.67188;95341.41;;;;
2022/06/05 01:50:42;;;;;;;10.25;9.299999;;;;;;;16.81;89.67188;95341.41;;;;
2022/06/05 01:51:45;;;;;;;10.25;9.299999;;;;;;;16.81;89.67188;95341.41;;;;
2022/06/05 01:52:53;;;;;;;10.25;9.299999;;;;;;;16.81;89.67188;95341.41;;;;
2022/06/05 01:53:59;;;;;;;10.25;9.299999;;;;;;;16.81;89.67188;95341.41;;;;
2022/06/05 01:55:05;;;;;;;10.25;9.299999;;;;;;;16.81;89.67188;95341.41;;;;
2022/06/05 01:56:10;;;;;;;10.25;9.299999;;;;;;;16.81;89.67188;95341.41;;;;
2022/06/05 01:57:18;;;;;;;10.25;9.299999;;;;;;;16.81;89.67188;95341.41;;;;
2022/06/05 01:58:21;;;;;;;10.25;9.299999;;;;;;;16.81;89.67188;95341.41;;;;
2022/06/05 01:59:27;;;;;;;10.25;9.299999;;;;;;;16.81;89.67188;95341.41;;;;
2022/06/05 02:00:37;;;;;;;10.25;9.299999;;;;;;;16.81;89.67188;95341.41;;;;
2022/06/05 02:01:37;;;;;;;10.25;9.299999;;;;;;;16.81;89.67188;95341.41;;;;
2022/06/05 02:02:42;;;;;;;10.25;9.299999;;;;;;;16.81;89.67188;95341.41;;;;
2022/06/05 02:03:51;;;;;;;10.25;9.299999;;;;;;;16.81;89.67188;95341.41;;;;
2022/06/05 02:04:57;;;;;;;10.25;9.299999;;;;;;;16.81;89.67188;95341.41;;;;
2022/06/05 02:06:05;;;;;;;10.25;9.299999;;;;;;;16.81;89.67188;95341.41;;;;
2022/06/05 02:07:10;;;;;;;10.25;9.299999;;;;;;;16.81;89.67188;95341.41;;;;
2022/06/05 02:08:15;;;;;;;10.25;9.299999;;;;;;;16.81;89.67188;95341.41;;;;
2022/06/05 02:09:22;;;;;;;9.55;8.65;;;;;;;16.62;89.91406;95324.24;;;;
2022/06/05 02:10:29;;;;;;;9.55;8.65;;;;;;;16.62;89.91406;95324.24;;;;
2022/06/05 02:11:36;;;;;;;9.55;8.65;;;;;;;16.62;89.91406;95324.24;;;;
2022/06/05 02:12:36;;;;;;;9.55;8.65;;;;;;;16.62;89.91406;95324.24;;;;
2022/06/05 02:13:37;;;;;;;9.55;8.65;;;;;;;16.62;89.91406;95324.24;;;;
2022/06/05 02:14:40;;;;;;;9.55;8.65;;;;;;;16.62;89.91406;95324.24;;;;
2022/06/05 02:15:41;;;;;;;9.55;8.65;;;;;;;16.62;89.91406;95324.24;;;;
2022/06/05 02:16:42;;;;;;;9.55;8.65;;;;;;;16.62;89.91406;95324.24;;;;
2022/06/05 02:17:43;;;;;;;9.55;8.65;;;;;;;16.62;89.91406;95324.24;;;;
2022/06/05 02:18:44;;;;;;;9.55;8.65;;;;;;;16.62;89.91406;95324.24;;;;
2022/06/05 02:19:45;;;;;;;9.800001;8.849999;;;;;;;16.53;90.08203;95322.52;;;;
2022/06/05 02:20:45;;;;;;;9.800001;8.849999;;;;;;;16.53;90.08203;95322.52;;;;
2022/06/05 02:21:46;;;;;;;9.800001;8.849999;;;;;;;16.53;90.08203;95322.52;;;;
2022/06/05 02:22:48;;;;;;;9.800001;8.849999;;;;;;;16.53;90.08203;95322.52;;;;
2022/06/05 02:23:50;;;;;;;9.800001;8.849999;;;;;;;16.53;90.08203;95322.52;;;;
2022/06/05 02:24:51;;;;;;;9.800001;8.849999;;;;;;;16.53;90.08203;95322.52;;;;
2022/06/05 02:25:53;;;;;;;9.800001;8.849999;;;;;;;16.53;90.08203;95322.52;;;;
2022/06/05 02:26:55;;;;;;;9.800001;8.849999;;;;;;;16.53;90.08203;95322.52;;;;
2022/06/05 02:27:59;;;;;;;9.800001;8.849999;;;;;;;16.53;90.08203;95322.52;;;;
2022/06/05 02:29:01;;;;;;;9.800001;8.849999;;;;;;;16.53;90.08203;95322.52;;;;
2022/06/05 02:30:05;;;;;;;10.25;9.299999;;;;;;;16.41;90.19824;95296.84;;;;
2022/06/05 02:31:08;;;;;;;10.25;9.299999;;;;;;;16.41;90.19824;95296.84;;;;
2022/06/05 02:32:22;;;;;;;10.25;9.299999;;;;;;;16.41;90.19824;95296.84;;;;
2022/06/05 02:33:36;;;;;;;10.25;9.299999;;;;;;;16.41;90.19824;95296.84;;;;
2022/06/05 02:34:44;;;;;;;10.25;9.299999;;;;;;;16.41;90.19824;95296.84;;;;
2022/06/05 02:35:54;;;;;;;10.25;9.299999;;;;;;;16.41;90.19824;95296.84;;;;
2022/06/05 02:37:05;;;;;;;10.25;9.299999;;;;;;;16.41;90.19824;95296.84;;;;
2022/06/05 02:38:18;;;;;;;10.25;9.299999;;;;;;;16.41;90.19824;95296.84;;;;
2022/06/05 02:39:33;;;;;;;10.25;9.299999;;;;;;;16.41;90.19824;95296.84;;;;
2022/06/05 02:40:42;;;;;;;10.25;9.299999;;;;;;;16.41;90.19824;95296.84;;;;
2022/06/05 02:41:53;;;;;;;11.2;10;;;;;;;16.38;90.40723;95286.25;;;;
2022/06/05 02:43:00;;;;;;;11.2;10;;;;;;;16.38;90.40723;95286.25;;;;
2022/06/05 02:44:41;;;;;;;11.2;10;;;;;;;16.38;90.40723;95286.25;;;;
2022/06/05 02:45:53;;;;;;;11.2;10;;;;;;;16.38;90.40723;95286.25;;;;
2022/06/05 02:47:01;;;;;;;11.2;10;;;;;;;16.38;90.40723;95286.25;;;;
2022/06/05 02:48:16;;;;;;;11.2;10;;;;;;;16.38;90.40723;95286.25;;;;
2022/06/05 02:49:25;;;;;;;11.2;10;;;;;;;16.38;90.40723;95286.25;;;;
2022/06/05 02:50:31;;;;;;;11.2;10;;;;;;;16.38;90.40723;95286.25;;;;
2022/06/05 02:51:38;;;;;;;11.3;9.700002;;;;;;;16.29;90.50977;95280.13;;;;
2022/06/05 02:52:41;;;;;;;11.3;9.700002;;;;;;;16.29;90.50977;95280.13;;;;
2022/06/05 02:53:42;;;;;;;11.3;9.700002;;;;;;;16.29;90.50977;95280.13;;;;
2022/06/05 02:54:45;;;;;;;11.3;9.700002;;;;;;;16.29;90.50977;95280.13;;;;
2022/06/05 02:55:55;;;;;;;11.3;9.700002;;;;;;;16.29;90.50977;95280.13;;;;
2022/06/05 02:56:56;;;;;;;11.3;9.700002;;;;;;;16.29;90.50977;95280.13;;;;
2022/06/05 02:57:56;;;;;;;11.3;9.700002;;;;;;;16.29;90.50977;95280.13;;;;
2022/06/05 02:58:57;;;;;;;11.3;9.700002;;;;;;;16.29;90.50977;95280.13;;;;
2022/06/05 03:00:00;;;;;;;11.3;9.700002;;;;;;;16.29;90.50977;95280.13;;;;
2022/06/05 03:06:13;;;;;;;10.65;9.650002;;;;;;;16.27;90.68848;95244.09;;;;
2022/06/05 03:07:13;;;;;;;10.65;9.650002;;;;;;;16.27;90.68848;95244.09;;;;
2022/06/05 03:08:14;;;;;;;10.65;9.650002;;;;;;;16.27;90.68848;95244.09;;;;
2022/06/05 03:09:18;;;;;;;10.65;9.650002;;;;;;;16.27;90.68848;95244.09;;;;
2022/06/05 03:10:19;;;;;;;10.65;9.650002;;;;;;;16.27;90.68848;95244.09;;;;
2022/06/05 03:11:19;;;;;;;10.65;9.650002;;;;;;;16.27;90.68848;95244.09;;;;
2022/06/05 03:12:20;;;;;;;10.65;9.650002;;;;;;;16.27;90.68848;95244.09;;;;
2022/06/05 03:13:22;;;;;;;11.1;10.1;;;;;;;16.2;90.70898;95231.34;;;;
2022/06/05 03:14:22;;;;;;;11.1;10.1;;;;;;;16.2;90.70898;95231.34;;;;
2022/06/05 03:15:23;;;;;;;11.1;10.1;;;;;;;16.2;90.70898;95231.34;;;;
2022/06/05 03:16:23;;;;;;;11.1;10.1;;;;;;;16.2;90.70898;95231.34;;;;
2022/06/05 03:17:24;;;;;;;11.1;10.1;;;;;;;16.2;90.70898;95231.34;;;;
2022/06/05 03:18:25;;;;;;;11.1;10.1;;;;;;;16.2;90.70898;95231.34;;;;
2022/06/05 03:19:27;;;;;;;11.1;10.1;;;;;;;16.2;90.70898;95231.34;;;;
2022/06/05 03:20:27;;;;;;;11.1;10.1;;;;;;;16.2;90.70898;95231.34;;;;
2022/06/05 03:21:28;;;;;;;11.1;10.1;;;;;;;16.2;90.70898;95231.34;;;;
2022/06/05 03:22:30;;;;;;;11.1;10.1;;;;;;;16.2;90.70898;95231.34;;;;
2022/06/05 03:23:31;;;;;;;10.75;9.65;;;;;;;16.22;90.83008;95218.68;;;;
2022/06/05 03:24:32;;;;;;;10.75;9.65;;;;;;;16.22;90.83008;95218.68;;;;
2022/06/05 03:25:33;;;;;;;10.75;9.65;;;;;;;16.22;90.83008;95218.68;;;;
2022/06/05 03:26:33;;;;;;;10.75;9.65;;;;;;;16.22;90.83008;95218.68;;;;
2022/06/05 03:27:34;;;;;;;10.75;9.65;;;;;;;16.22;90.83008;95218.68;;;;
2022/06/05 03:28:35;;;;;;;10.75;9.65;;;;;;;16.22;90.83008;95218.68;;;;
2022/06/05 03:29:35;;;;;;;10.75;9.65;;;;;;;16.22;90.83008;95218.68;;;;
2022/06/05 03:30:36;;;;;;;10.75;9.65;;;;;;;16.22;90.83008;95218.68;;;;
2022/06/05 03:31:37;;;;;;;10.75;9.65;;;;;;;16.22;90.83008;95218.68;;;;
2022/06/05 03:32:38;;;;;;;10.75;9.65;;;;;;;16.22;90.83008;95218.68;;;;
2022/06/05 03:33:39;;;;;;;10.75;9.65;;;;;;;16.22;90.83008;95218.68;;;;
2022/06/05 03:34:40;;;;;;;10.8;9.65;;;;;;;16.2;90.84863;95210.11;;;;
2022/06/05 03:35:40;;;;;;;10.8;9.65;;;;;;;16.2;90.84863;95210.11;;;;
2022/06/05 03:36:44;;;;;;;10.8;9.65;;;;;;;16.2;90.84863;95210.11;;;;
2022/06/05 03:37:45;;;;;;;10.8;9.65;;;;;;;16.2;90.84863;95210.11;;;;
2022/06/05 03:38:45;;;;;;;10.8;9.65;;;;;;;16.2;90.84863;95210.11;;;;
2022/06/05 03:39:47;;;;;;;10.8;9.65;;;;;;;16.2;90.84863;95210.11;;;;
2022/06/05 03:40:48;;;;;;;10.8;9.65;;;;;;;16.2;90.84863;95210.11;;;;
2022/06/05 03:41:48;;;;;;;10.8;9.65;;;;;;;16.2;90.84863;95210.11;;;;
2022/06/05 03:42:49;;;;;;;10.8;9.65;;;;;;;16.2;90.84863;95210.11;;;;
2022/06/05 03:43:49;;;;;;;10.8;9.65;;;;;;;16.2;90.84863;95210.11;;;;
2022/06/05 03:44:50;;;;;;;9.699999;8.65;;;;;;;16.32;91.04688;95196.13;;;;
2022/06/05 03:45:51;;;;;;;9.699999;8.65;;;;;;;16.32;91.04688;95196.13;;;;
2022/06/05 03:46:59;;;;;;;9.699999;8.65;;;;;;;16.32;91.04688;95196.13;;;;
2022/06/05 03:48:00;;;;;;;9.699999;8.65;;;;;;;16.32;91.04688;95196.13;;;;
2022/06/05 03:49:00;;;;;;;9.699999;8.65;;;;;;;16.32;91.04688;95196.13;;;;
2022/06/05 03:50:01;;;;;;;9.699999;8.65;;;;;;;16.32;91.04688;95196.13;;;;
2022/06/05 03:51:01;;;;;;;9.699999;8.65;;;;;;;16.32;91.04688;95196.13;;;;
2022/06/05 03:52:05;;;;;;;9.699999;8.65;;;;;;;16.32;91.04688;95196.13;;;;
2022/06/05 03:53:07;;;;;;;9.699999;8.65;;;;;;;16.32;91.04688;95196.13;;;;
2022/06/05 03:54:08;;;;;;;9.699999;8.65;;;;;;;16.32;91.04688;95196.13;;;;
2022/06/05 03:55:08;;;;;;;9.699999;8.65;;;;;;;16.32;91.04688;95196.13;;;;
2022/06/05 03:56:13;;;;;;;9.85;8.85;;;;;;;16.47;91.00391;95184.2;;;;
2022/06/05 03:57:16;;;;;;;9.85;8.85;;;;;;;16.47;91.00391;95184.2;;;;
2022/06/05 03:58:17;;;;;;;9.85;8.85;;;;;;;16.47;91.00391;95184.2;;;;
2022/06/05 03:59:17;;;;;;;9.85;8.85;;;;;;;16.47;91.00391;95184.2;;;;
2022/06/05 04:00:18;;;;;;;9.85;8.85;;;;;;;16.47;91.00391;95184.2;;;;
2022/06/05 04:01:21;;;;;;;9.85;8.85;;;;;;;16.47;91.00391;95184.2;;;;
2022/06/05 04:02:25;;;;;;;9.85;8.85;;;;;;;16.47;91.00391;95184.2;;;;
2022/06/05 04:03:25;;;;;;;9.85;8.85;;;;;;;16.47;91.00391;95184.2;;;;
2022/06/05 04:04:26;;;;;;;9.85;8.85;;;;;;;16.47;91.00391;95184.2;;;;
2022/06/05 04:05:26;;;;;;;9.85;8.85;;;;;;;16.47;91.00391;95184.2;;;;
2022/06/05 04:06:27;;;;;;;9.350001;8.45;;;;;;;16.75;90.96191;95181.41;;;;
2022/06/05 04:07:30;;;;;;;9.350001;8.45;;;;;;;16.75;90.96191;95181.41;;;;
2022/06/05 04:08:31;;;;;;;9.350001;8.45;;;;;;;16.75;90.96191;95181.41;;;;
2022/06/05 04:09:31;;;;;;;9.350001;8.45;;;;;;;16.75;90.96191;95181.41;;;;
2022/06/05 04:10:32;;;;;;;9.350001;8.45;;;;;;;16.75;90.96191;95181.41;;;;
2022/06/05 04:11:32;;;;;;;9.350001;8.45;;;;;;;16.75;90.96191;95181.41;;;;
2022/06/05 04:12:35;;;;;;;9.350001;8.45;;;;;;;16.75;90.96191;95181.41;;;;
2022/06/05 04:13:36;;;;;;;9.350001;8.45;;;;;;;16.75;90.96191;95181.41;;;;
2022/06/05 04:14:37;;;;;;;9.350001;8.45;;;;;;;16.75;90.96191;95181.41;;;;
2022/06/05 04:15:38;;;;;;;9.350001;8.45;;;;;;;16.75;90.96191;95181.41;;;;
2022/06/05 04:16:38;;;;;;;9.350001;8.45;;;;;;;16.75;90.96191;95181.41;;;;
2022/06/05 04:17:41;;;;;;;9.150002;8.25;;;;;;;16.95;90.69727;95167.85;;;;
2022/06/05 04:18:42;;;;;;;9.150002;8.25;;;;;;;16.95;90.69727;95167.85;;;;
2022/06/05 04:19:42;;;;;;;9.150002;8.25;;;;;;;16.95;90.69727;95167.85;;;;
2022/06/05 04:20:43;;;;;;;9.150002;8.25;;;;;;;16.95;90.69727;95167.85;;;;
2022/06/05 04:21:44;;;;;;;9.150002;8.25;;;;;;;16.95;90.69727;95167.85;;;;
2022/06/05 04:22:45;;;;;;;9.150002;8.25;;;;;;;16.95;90.69727;95167.85;;;;
2022/06/05 04:23:45;;;;;;;9.150002;8.25;;;;;;;16.95;90.69727;95167.85;;;;
2022/06/05 04:24:46;;;;;;;9.150002;8.25;;;;;;;16.95;90.69727;95167.85;;;;
2022/06/05 04:25:47;;;;;;;9.150002;8.25;;;;;;;16.95;90.69727;95167.85;;;;
2022/06/05 04:26:47;;;;;;;9.150002;8.25;;;;;;;16.95;90.69727;95167.85;;;;
2022/06/05 04:27:48;;;;;;;8.9;8.050001;;;;;;;17.26;90.73047;95151.83;;;;
2022/06/05 04:28:48;;;;;;;8.9;8.050001;;;;;;;17.26;90.73047;95151.83;;;;
2022/06/05 04:29:49;;;;;;;8.9;8.050001;;;;;;;17.26;90.73047;95151.83;;;;
2022/06/05 04:30:50;;;;;;;8.9;8.050001;;;;;;;17.26;90.73047;95151.83;;;;
2022/06/05 04:31:50;;;;;;;8.9;8.050001;;;;;;;17.26;90.73047;95151.83;;;;
2022/06/05 04:32:51;;;;;;;8.9;8.050001;;;;;;;17.26;90.73047;95151.83;;;;
2022/06/05 04:33:52;;;;;;;8.9;8.050001;;;;;;;17.26;90.73047;95151.83;;;;
2022/06/05 04:34:56;;;;;;;8.9;8.050001;;;;;;;17.26;90.73047;95151.83;;;;
2022/06/05 04:35:56;;;;;;;8.9;8.050001;;;;;;;17.26;90.73047;95151.83;;;;
2022/06/05 04:36:57;;;;;;;8.9;8.050001;;;;;;;17.26;90.73047;95151.83;;;;
2022/06/05 04:37:57;;;;;;;8.9;8.050001;;;;;;;17.26;90.73047;95151.83;;;;
2022/06/05 04:38:58;;;;;;;8.15;7.349999;;;;;;;17.58;90.43457;95153.13;;;;
2022/06/05 04:39:58;;;;;;;8.15;7.349999;;;;;;;17.58;90.43457;95153.13;;;;
2022/06/05 04:40:59;;;;;;;8.15;7.349999;;;;;;;17.58;90.43457;95153.13;;;;
2022/06/05 04:42:00;;;;;;;8.15;7.349999;;;;;;;17.58;90.43457;95153.13;;;;
2022/06/05 04:43:00;;;;;;;8.15;7.349999;;;;;;;17.58;90.43457;95153.13;;;;
2022/06/05 04:44:01;;;;;;;8.15;7.349999;;;;;;;17.58;90.43457;95153.13;;;;
2022/06/05 04:45:02;;;;;;;8.15;7.349999;;;;;;;17.58;90.43457;95153.13;;;;
2022/06/05 04:46:04;;;;;;;8.15;7.349999;;;;;;;17.58;90.43457;95153.13;;;;
2022/06/05 04:47:05;;;;;;;8.15;7.349999;;;;;;;17.58;90.43457;95153.13;;;;
2022/06/05 04:48:06;;;;;;;8.15;7.349999;;;;;;;17.58;90.43457;95153.13;;;;
2022/06/05 04:49:07;;;;;;;8.3;7.4;;;;;;;17.92;90.25391;95134.74;;;;
2022/06/05 04:50:07;;;;;;;8.3;7.4;;;;;;;17.92;90.25391;95134.74;;;;
2022/06/05 04:51:09;;;;;;;8.3;7.4;;;;;;;17.92;90.25391;95134.74;;;;
2022/06/05 04:52:12;;;;;;;8.3;7.4;;;;;;;17.92;90.25391;95134.74;;;;
2022/06/05 04:53:12;;;;;;;8.3;7.4;;;;;;;17.92;90.25391;95134.74;;;;
2022/06/05 04:54:12;;;;;;;8.3;7.4;;;;;;;17.92;90.25391;95134.74;;;;
2022/06/05 04:55:15;;;;;;;8.3;7.4;;;;;;;17.92;90.25391;95134.74;;;;
2022/06/05 04:56:16;;;;;;;8.3;7.4;;;;;;;17.92;90.25391;95134.74;;;;
2022/06/05 04:57:19;;;;;;;8.3;7.4;;;;;;;17.92;90.25391;95134.74;;;;
2022/06/05 04:58:20;;;;;;;8.3;7.4;;;;;;;17.92;90.25391;95134.74;;;;
2022/06/05 04:59:20;;;;;;;8.3;7.4;;;;;;;17.92;90.25391;95134.74;;;;
2022/06/05 05:00:21;;;;;;;7.45;6.75;;;;;;;18.16;89.86621;95136.42;;;;
2022/06/05 05:01:22;;;;;;;7.45;6.75;;;;;;;18.16;89.86621;95136.42;;;;
2022/06/05 05:02:25;;;;;;;7.45;6.75;;;;;;;18.16;89.86621;95136.42;;;;
2022/06/05 05:03:25;;;;;;;7.45;6.75;;;;;;;18.16;89.86621;95136.42;;;;
2022/06/05 05:04:26;;;;;;;7.45;6.75;;;;;;;18.16;89.86621;95136.42;;;;
2022/06/05 05:05:27;;;;;;;7.45;6.75;;;;;;;18.16;89.86621;95136.42;;;;
2022/06/05 05:06:27;;;;;;;7.45;6.75;;;;;;;18.16;89.86621;95136.42;;;;
2022/06/05 05:07:29;;;;;;;7.45;6.75;;;;;;;18.16;89.86621;95136.42;;;;
2022/06/05 05:08:30;;;;;;;7.45;6.75;;;;;;;18.16;89.86621;95136.42;;;;
2022/06/05 05:09:31;;;;;;;7.45;6.75;;;;;;;18.16;89.86621;95136.42;;;;
2022/06/05 05:10:31;;;;;;;7.4;6.749999;;;;;;;18.63;89.47168;95130.84;;;;
2022/06/05 05:11:32;;;;;;;7.4;6.749999;;;;;;;18.63;89.47168;95130.84;;;;
2022/06/05 05:12:33;;;;;;;7.4;6.749999;;;;;;;18.63;89.47168;95130.84;;;;
2022/06/05 05:13:34;;;;;;;7.4;6.749999;;;;;;;18.63;89.47168;95130.84;;;;
2022/06/05 05:14:35;;;;;;;7.4;6.749999;;;;;;;18.63;89.47168;95130.84;;;;
2022/06/05 05:15:36;;;;;;;7.4;6.749999;;;;;;;18.63;89.47168;95130.84;;;;
2022/06/05 05:16:37;;;;;;;7.4;6.749999;;;;;;;18.63;89.47168;95130.84;;;;
2022/06/05 05:17:37;;;;;;;7.4;6.749999;;;;;;;18.63;89.47168;95130.84;;;;
2022/06/05 05:18:38;;;;;;;7.4;6.749999;;;;;;;18.63;89.47168;95130.84;;;;
2022/06/05 05:19:39;;;;;;;7.4;6.749999;;;;;;;18.63;89.47168;95130.84;;;;
2022/06/05 05:20:39;;;;;;;7.4;6.749999;;;;;;;18.63;89.47168;95130.84;;;;
2022/06/05 05:21:40;;;;;;;6.95;6.249999;;;;;;;19.18;88.65332;95098.32;;;;
2022/06/05 05:22:40;;;;;;;6.95;6.249999;;;;;;;19.18;88.65332;95098.32;;;;
2022/06/05 05:23:41;;;;;;;6.95;6.249999;;;;;;;19.18;88.65332;95098.32;;;;
2022/06/05 05:24:43;;;;;;;6.95;6.249999;;;;;;;19.18;88.65332;95098.32;;;;
2022/06/05 05:25:43;;;;;;;6.95;6.249999;;;;;;;19.18;88.65332;95098.32;;;;
2022/06/05 05:26:45;;;;;;;6.95;6.249999;;;;;;;19.18;88.65332;95098.32;;;;
2022/06/05 05:27:45;;;;;;;6.95;6.249999;;;;;;;19.18;88.65332;95098.32;;;;
2022/06/05 05:28:46;;;;;;;6.95;6.249999;;;;;;;19.18;88.65332;95098.32;;;;
2022/06/05 05:29:47;;;;;;;6.95;6.249999;;;;;;;19.18;88.65332;95098.32;;;;
2022/06/05 05:30:47;;;;;;;6.95;6.249999;;;;;;;19.18;88.65332;95098.32;;;;
2022/06/05 05:31:47;;;;;;;7.1;6.199999;;;;;;;19.46;88.13867;95084.49;;;;
2022/06/05 05:32:48;;;;;;;7.1;6.199999;;;;;;;19.46;88.13867;95084.49;;;;
2022/06/05 05:33:49;;;;;;;7.1;6.199999;;;;;;;19.46;88.13867;95084.49;;;;
2022/06/05 05:34:51;;;;;;;7.1;6.199999;;;;;;;19.46;88.13867;95084.49;;;;
2022/06/05 05:35:54;;;;;;;7.1;6.199999;;;;;;;19.46;88.13867;95084.49;;;;
2022/06/05 05:36:54;;;;;;;7.1;6.199999;;;;;;;19.46;88.13867;95084.49;;;;
2022/06/05 05:37:55;;;;;;;7.1;6.199999;;;;;;;19.46;88.13867;95084.49;;;;
2022/06/05 05:44:10;;;;;;;7;6.349999;;;;;;;19.47;87.9873;95087.87;;;;
2022/06/05 05:45:10;;;;;;;7;6.349999;;;;;;;19.47;87.9873;95087.87;;;;
2022/06/05 05:46:11;;;;;;;7;6.349999;;;;;;;19.47;87.9873;95087.87;;;;
2022/06/05 05:47:14;;;;;;;7;6.349999;;;;;;;19.47;87.9873;95087.87;;;;
2022/06/05 05:48:17;;;;;;;7;6.349999;;;;;;;19.47;87.9873;95087.87;;;;
2022/06/05 05:49:18;;;;;;;7;6.349999;;;;;;;19.47;87.9873;95087.87;;;;
2022/06/05 05:50:18;;;;;;;7;6.349999;;;;;;;19.47;87.9873;95087.87;;;;
2022/06/05 05:51:19;;;;;;;7;6.349999;;;;;;;19.47;87.9873;95087.87;;;;
2022/06/05 05:52:20;;;;;;;7;6.349999;;;;;;;19.47;87.9873;95087.87;;;;
2022/06/05 05:53:22;;;;;;;6.55;5.95;;;;;;;19.63;87.84375;95070.25;;;;
2022/06/05 05:54:22;;;;;;;6.55;5.95;;;;;;;19.63;87.84375;95070.25;;;;
2022/06/05 05:55:23;;;;;;;6.55;5.95;;;;;;;19.63;87.84375;95070.25;;;;
2022/06/05 05:56:23;;;;;;;6.55;5.95;;;;;;;19.63;87.84375;95070.25;;;;
2022/06/05 05:57:24;;;;;;;6.55;5.95;;;;;;;19.63;87.84375;95070.25;;;;
2022/06/05 05:58:24;;;;;;;6.55;5.95;;;;;;;19.63;87.84375;95070.25;;;;
2022/06/05 05:59:25;;;;;;;6.55;5.95;;;;;;;19.63;87.84375;95070.25;;;;
2022/06/05 06:00:26;;;;;;;6.55;5.95;;;;;;;19.63;87.84375;95070.25;;;;